Time;durP1;ratioP1;P1;durP2;ratioP2;P2;SDS_P1;SDS_P2;PMS_P1;PMS_P2;Temp;Humidity;BMP_temperature;BMP_pressure;BME280_temperature;BME280_humidity;BME280_pressure;Samples;Min_cycle;Max_cycle;Signal;HPM_P1;HPM_P2
2023/01/24 00:01:12;;;;;;;42.97;24.85;;;;;;;;;;4930688;28;99562;-71
2023/01/24 00:03:39;;;;;;;25.08;17.23;;;;;;;;;;4934769;28;99071;-70
2023/01/24 00:06:05;;;;;;;23.23;14.98;;;;;;;;;;4928590;28;100010;-70
2023/01/24 00:08:31;;;;;;;24.30;15.27;;;;;;;;;;4930994;28;103016;-70
2023/01/24 00:11:01;;;;;;;19.40;13.48;;;;;;;;;;4931880;28;100291;-70
2023/01/24 00:13:28;;;;;;;20.88;14.70;;;;;;;;;;4930234;28;99947;-70
2023/01/24 00:16:04;;;;;;;18.95;14.05;;;;;;;;;;4929807;28;99721;-70
2023/01/24 00:18:32;;;;;;;21.38;13.00;;;;;;;;;;4929730;28;98927;-70
2023/01/24 00:21:03;;;;;;;22.08;14.13;;;;;;;;;;4929156;28;99342;-70
2023/01/24 00:23:29;;;;;;;18.42;13.20;;;;;;;;;;4920332;28;99877;-70
2023/01/24 00:25:55;;;;;;;19.70;13.90;;;;;;;;;;4926073;28;98863;-70
2023/01/24 00:28:22;;;;;;;20.00;13.80;;;;;;;;;;4930182;28;99220;-70
2023/01/24 00:30:48;;;;;;;20.88;14.13;;;;;;;;;;4925591;28;100510;-70
2023/01/24 00:33:14;;;;;;;20.75;14.00;;;;;;;;;;4944843;28;98873;-71
2023/01/24 00:35:41;;;;;;;21.02;13.90;;;;;;;;;;4929700;28;100589;-71
2023/01/24 00:38:07;;;;;;;19.70;14.20;;;;;;;;;;4947633;28;99462;-70
2023/01/24 00:40:33;;;;;;;21.10;14.18;;;;;;;;;;4949221;28;99227;-71
2023/01/24 00:42:59;;;;;;;25.08;14.93;;;;;;;;;;4937734;28;99581;-70
2023/01/24 00:45:26;;;;;;;21.02;14.43;;;;;;;;;;4938882;28;98482;-70
2023/01/24 00:47:52;;;;;;;19.52;13.77;;;;;;;;;;4945018;28;99321;-70
2023/01/24 00:50:19;;;;;;;27.23;15.95;;;;;;;;;;4955725;28;100603;-70
2023/01/24 00:52:45;;;;;;;21.45;14.10;;;;;;;;;;4955835;28;97829;-70
2023/01/24 00:55:11;;;;;;;20.95;14.95;;;;;;;;;;4944238;28;98865;-70
2023/01/24 00:57:38;;;;;;;22.77;14.95;;;;;;;;;;4952246;28;99042;-71
2023/01/24 01:00:04;;;;;;;23.83;14.85;;;;;;;;;;4938136;28;99322;-70
2023/01/24 01:02:30;;;;;;;22.85;15.45;;;;;;;;;;4936485;28;99742;-70
2023/01/24 01:04:57;;;;;;;24.20;16.02;;;;;;;;;;4939525;28;98540;-71
2023/01/24 01:07:24;;;;;;;30.75;15.30;;;;;;;;;;4936441;28;99655;-70
2023/01/24 01:09:50;;;;;;;21.67;14.68;;;;;;;;;;4936156;28;99934;-70
2023/01/24 01:12:17;;;;;;;20.35;14.40;;;;;;;;;;4936474;28;99066;-70
2023/01/24 01:14:43;;;;;;;23.60;15.10;;;;;;;;;;4939465;28;99858;-70
2023/01/24 01:17:11;;;;;;;22.77;14.93;;;;;;;;;;4937312;28;97896;-70
2023/01/24 01:19:37;;;;;;;22.80;14.63;;;;;;;;;;4936027;28;98806;-70
2023/01/24 01:22:03;;;;;;;20.58;15.18;;;;;;;;;;4936072;28;99517;-70
2023/01/24 01:24:29;;;;;;;23.13;15.15;;;;;;;;;;4934038;28;100712;-70
2023/01/24 01:26:56;;;;;;;21.70;14.45;;;;;;;;;;4934871;28;100041;-70
2023/01/24 01:29:22;;;;;;;22.42;15.40;;;;;;;;;;4936157;28;99556;-70
2023/01/24 01:31:48;;;;;;;21.90;14.80;;;;;;;;;;4935515;28;99049;-70
2023/01/24 01:34:15;;;;;;;22.17;15.20;;;;;;;;;;4933225;28;99208;-70
2023/01/24 01:36:41;;;;;;;26.27;16.48;;;;;;;;;;4939632;28;102809;-71
2023/01/24 01:39:07;;;;;;;24.40;15.63;;;;;;;;;;4936034;28;100764;-70
2023/01/24 01:41:34;;;;;;;25.92;16.08;;;;;;;;;;4938588;28;98789;-70
2023/01/24 01:47:16;;;;;;;21.67;14.18;;;;;;;;;;4933777;28;99268;-70
2023/01/24 01:49:45;;;;;;;22.15;14.02;;;;;;;;;;4942262;28;100415;-70
2023/01/24 01:52:11;;;;;;;22.63;14.85;;;;;;;;;;4950719;28;98508;-70
2023/01/24 01:54:40;;;;;;;22.52;14.73;;;;;;;;;;4934413;28;99186;-71
2023/01/24 01:57:10;;;;;;;21.42;14.43;;;;;;;;;;4948495;28;102680;-70
2023/01/24 01:59:42;;;;;;;21.75;14.80;;;;;;;;;;4951453;28;98558;-69
2023/01/24 02:02:08;;;;;;;19.92;13.77;;;;;;;;;;4945391;28;99325;-70
2023/01/24 02:04:36;;;;;;;22.25;14.80;;;;;;;;;;4946645;28;98604;-70
2023/01/24 02:07:06;;;;;;;19.45;13.07;;;;;;;;;;4936751;28;99242;-71
2023/01/24 02:09:36;;;;;;;21.75;14.00;;;;;;;;;;4932346;28;101016;-71
2023/01/24 02:12:05;;;;;;;23.40;13.80;;;;;;;;;;4932738;28;98572;-71
2023/01/24 02:17:17;;;;;;;20.58;13.68;;;;;;;;;;4932666;28;101383;-71
2023/01/24 02:19:50;;;;;;;18.83;12.93;;;;;;;;;;4932576;28;98801;-71
2023/01/24 02:22:21;;;;;;;20.77;12.45;;;;;;;;;;4935492;28;99231;-71
2023/01/24 02:24:47;;;;;;;;;;;;;;;;;;4932840;28;98578;-71
2023/01/24 02:27:13;;;;;;;17.88;12.45;;;;;;;;;;4933217;28;128962;-71
2023/01/24 02:29:39;;;;;;;18.40;13.07;;;;;;;;;;4920000;28;100535;-71
2023/01/24 02:32:07;;;;;;;22.67;13.98;;;;;;;;;;4913790;28;97762;-71
2023/01/24 02:34:33;;;;;;;19.60;13.43;;;;;;;;;;4931039;28;98892;-71
2023/01/24 02:37:02;;;;;;;22.50;13.82;;;;;;;;;;4944608;28;100578;-71
2023/01/24 02:39:30;;;;;;;19.45;13.18;;;;;;;;;;4950364;28;99315;-70
2023/01/24 02:42:01;;;;;;;18.13;13.00;;;;;;;;;;4933344;28;100958;-70
2023/01/24 02:45:05;;;;;;;20.00;14.23;;;;;;;;;;4922778;28;99867;-70
2023/01/24 02:47:34;;;;;;;24.02;14.23;;;;;;;;;;4875338;28;99514;-71
2023/01/24 02:50:01;;;;;;;24.42;14.57;;;;;;;;;;4869525;28;101241;-71
2023/01/24 02:55:13;;;;;;;24.25;14.63;;;;;;;;;;4897490;28;99567;-71
2023/01/24 03:00:24;;;;;;;25.90;14.30;;;;;;;;;;4899729;28;98736;-70
2023/01/24 03:02:51;;;;;;;21.00;14.15;;;;;;;;;;4886768;28;99632;-71
2023/01/24 03:05:17;;;;;;;23.30;14.30;;;;;;;;;;4900065;28;100743;-71
2023/01/24 03:07:46;;;;;;;21.95;14.35;;;;;;;;;;4908136;28;98495;-71
2023/01/24 03:10:17;;;;;;;22.25;14.23;;;;;;;;;;4906731;28;99499;-71
2023/01/24 03:34:48;;;;;;;24.50;13.82;;;;;;;;;;4918592;28;98533;-70
2023/01/24 03:37:16;;;;;;;22.02;14.07;;;;;;;;;;4929918;28;99681;-71
2023/01/24 03:39:58;;;;;;;21.08;14.02;;;;;;;;;;4929538;28;99483;-71
2023/01/24 03:42:26;;;;;;;21.33;13.65;;;;;;;;;;4933826;28;98560;-71
2023/01/24 03:44:52;;;;;;;21.20;13.68;;;;;;;;;;4931223;28;100359;-71
2023/01/24 03:47:18;;;;;;;21.50;13.18;;;;;;;;;;4928654;28;99597;-72
2023/01/24 03:52:30;;;;;;;22.45;14.00;;;;;;;;;;4943412;28;98683;-71
2023/01/24 03:54:57;;;;;;;23.20;13.68;;;;;;;;;;4934945;28;98591;-71
2023/01/24 03:57:23;;;;;;;20.25;12.70;;;;;;;;;;4930064;28;99712;-71
2023/01/24 03:59:49;;;;;;;21.95;14.13;;;;;;;;;;4932858;28;99605;-71
2023/01/24 04:02:16;;;;;;;22.00;13.63;;;;;;;;;;4929995;28;100119;-71
2023/01/24 04:07:28;;;;;;;19.27;13.30;;;;;;;;;;4923985;28;99522;-70
2023/01/24 04:09:55;;;;;;;22.00;13.50;;;;;;;;;;4931308;28;100913;-71
2023/01/24 04:12:21;;;;;;;20.40;13.38;;;;;;;;;;4938357;28;99267;-70
2023/01/24 04:14:47;;;;;;;22.17;14.60;;;;;;;;;;4949385;28;100020;-71
2023/01/24 04:17:14;;;;;;;21.73;14.40;;;;;;;;;;4942130;28;100840;-70
2023/01/24 04:19:40;;;;;;;21.88;14.48;;;;;;;;;;4927183;28;99539;-70
2023/01/24 04:22:06;;;;;;;20.25;14.38;;;;;;;;;;4945150;28;99270;-70
2023/01/24 04:24:33;;;;;;;22.98;14.80;;;;;;;;;;4939640;28;101348;-70
2023/01/24 04:26:59;;;;;;;21.30;14.30;;;;;;;;;;4936681;28;99927;-70
2023/01/24 04:29:25;;;;;;;22.17;14.50;;;;;;;;;;4947862;28;98529;-69
2023/01/24 04:31:52;;;;;;;23.67;15.43;;;;;;;;;;4947262;28;99429;-70
2023/01/24 04:34:18;;;;;;;27.02;15.85;;;;;;;;;;4928717;28;99268;-70
2023/01/24 04:36:44;;;;;;;21.52;14.75;;;;;;;;;;4943723;28;98724;-70
2023/01/24 04:39:10;;;;;;;25.67;16.42;;;;;;;;;;4934283;28;99066;-71
2023/01/24 04:41:37;;;;;;;23.92;16.42;;;;;;;;;;4934624;28;98728;-70
2023/01/24 04:44:03;;;;;;;24.33;15.70;;;;;;;;;;4928019;28;99773;-71
2023/01/24 04:46:29;;;;;;;26.30;16.33;;;;;;;;;;4932954;28;100521;-71
2023/01/24 04:48:56;;;;;;;25.85;16.50;;;;;;;;;;4950055;28;98793;-70
2023/01/24 04:51:22;;;;;;;26.67;15.75;;;;;;;;;;4948690;28;100344;-70
2023/01/24 04:53:48;;;;;;;25.17;15.90;;;;;;;;;;4937311;28;99589;-71
2023/01/24 04:56:14;;;;;;;25.63;16.17;;;;;;;;;;4942643;28;98658;-70
2023/01/24 04:58:41;;;;;;;26.60;17.00;;;;;;;;;;4952702;28;99258;-71
2023/01/24 05:01:07;;;;;;;26.35;16.30;;;;;;;;;;4941796;28;98894;-70
2023/01/24 05:03:33;;;;;;;26.50;16.77;;;;;;;;;;4946669;28;99527;-70
2023/01/24 05:06:00;;;;;;;24.13;15.23;;;;;;;;;;4933987;28;100269;-70
2023/01/24 05:08:26;;;;;;;25.98;16.20;;;;;;;;;;4930301;28;98504;-70
2023/01/24 05:10:52;;;;;;;27.15;17.20;;;;;;;;;;4933249;28;100562;-70
2023/01/24 05:13:19;;;;;;;28.60;17.92;;;;;;;;;;4921119;28;100756;-70
2023/01/24 05:15:49;;;;;;;29.73;17.58;;;;;;;;;;4934872;28;98843;-72
2023/01/24 05:18:15;;;;;;;27.13;17.55;;;;;;;;;;4933747;28;100287;-71
2023/01/24 05:20:42;;;;;;;27.55;17.85;;;;;;;;;;4948902;28;98905;-71
2023/01/24 05:23:08;;;;;;;26.85;17.10;;;;;;;;;;4948707;28;99432;-71
2023/01/24 05:25:34;;;;;;;30.05;18.65;;;;;;;;;;4948363;28;99502;-71
2023/01/24 05:28:01;;;;;;;25.73;16.58;;;;;;;;;;4929551;28;98757;-70
2023/01/24 05:30:27;;;;;;;27.58;17.23;;;;;;;;;;4947231;28;100397;-70
2023/01/24 05:32:56;;;;;;;31.73;19.33;;;;;;;;;;4945271;28;99495;-70
2023/01/24 05:35:23;;;;;;;25.70;16.45;;;;;;;;;;4940125;28;100058;-71
2023/01/24 05:37:50;;;;;;;26.48;17.55;;;;;;;;;;4951293;28;101618;-71
2023/01/24 05:40:17;;;;;;;30.83;18.83;;;;;;;;;;4954600;28;99571;-71
2023/01/24 05:42:43;;;;;;;28.83;18.27;;;;;;;;;;4941923;28;99328;-71
2023/01/24 05:45:10;;;;;;;30.50;19.23;;;;;;;;;;4937084;28;99592;-71
2023/01/24 05:47:36;;;;;;;31.20;19.58;;;;;;;;;;4943453;28;98745;-71
2023/01/24 05:50:02;;;;;;;30.00;19.45;;;;;;;;;;4949865;28;99729;-72
2023/01/24 05:52:29;;;;;;;31.48;19.15;;;;;;;;;;4931794;28;99121;-72
2023/01/24 05:54:55;;;;;;;33.45;19.25;;;;;;;;;;4932730;28;98631;-70
2023/01/24 05:57:21;;;;;;;31.48;19.63;;;;;;;;;;4941650;28;99613;-70
2023/01/24 05:59:48;;;;;;;30.13;18.75;;;;;;;;;;4950748;28;100291;-70
2023/01/24 06:02:14;;;;;;;34.70;20.10;;;;;;;;;;4936521;28;98678;-70
2023/01/24 06:04:41;;;;;;;30.23;18.58;;;;;;;;;;4948214;28;99836;-70
2023/01/24 06:07:07;;;;;;;32.10;19.83;;;;;;;;;;4939248;28;98840;-70
2023/01/24 06:09:33;;;;;;;29.63;19.00;;;;;;;;;;4931565;28;99229;-70
2023/01/24 06:11:59;;;;;;;29.55;19.05;;;;;;;;;;4939358;28;100121;-70
2023/01/24 06:14:26;;;;;;;31.00;18.73;;;;;;;;;;4935294;28;98978;-70
2023/01/24 06:16:52;;;;;;;33.60;18.80;;;;;;;;;;4922020;28;99232;-70
2023/01/24 06:19:18;;;;;;;31.40;19.27;;;;;;;;;;4950392;28;101004;-70
2023/01/24 06:21:49;;;;;;;31.35;19.90;;;;;;;;;;4942322;28;98715;-70
2023/01/24 06:24:22;;;;;;;26.55;17.65;;;;;;;;;;4922264;28;101345;-70
2023/01/24 06:26:49;;;;;;;29.65;18.55;;;;;;;;;;4945417;28;100106;-70
2023/01/24 06:29:16;;;;;;;30.05;18.95;;;;;;;;;;4936212;28;99388;-70
2023/01/24 06:31:47;;;;;;;30.02;18.67;;;;;;;;;;4934236;28;99651;-70
2023/01/24 06:34:16;;;;;;;31.40;19.15;;;;;;;;;;4927608;28;98976;-69
2023/01/24 06:36:42;;;;;;;33.60;19.90;;;;;;;;;;4935043;28;99239;-69
2023/01/24 06:39:13;;;;;;;31.42;19.20;;;;;;;;;;4950447;28;99466;-69
2023/01/24 06:41:40;;;;;;;33.60;20.20;;;;;;;;;;4934299;28;97809;-70
2023/01/24 06:44:08;;;;;;;36.38;20.17;;;;;;;;;;4931787;28;98663;-70
2023/01/24 06:46:34;;;;;;;41.67;20.30;;;;;;;;;;4938931;28;99808;-70
2023/01/24 06:49:00;;;;;;;29.17;18.58;;;;;;;;;;4950005;28;99522;-70
2023/01/24 06:51:27;;;;;;;33.80;19.77;;;;;;;;;;4915894;28;102393;-70
2023/01/24 06:53:53;;;;;;;32.58;20.33;;;;;;;;;;4927478;28;98639;-70
2023/01/24 06:56:19;;;;;;;30.55;18.85;;;;;;;;;;4933865;28;99607;-70
2023/01/24 06:58:47;;;;;;;29.73;18.83;;;;;;;;;;4934539;28;99891;-70
2023/01/24 07:01:13;;;;;;;33.13;19.80;;;;;;;;;;4931751;28;99412;-70
2023/01/24 07:03:39;;;;;;;31.35;19.13;;;;;;;;;;4941426;28;100701;-70
2023/01/24 07:06:06;;;;;;;33.55;18.98;;;;;;;;;;4930421;28;99044;-72
2023/01/24 07:08:32;;;;;;;32.22;20.35;;;;;;;;;;4934984;28;98488;-71
2023/01/24 07:10:58;;;;;;;31.30;19.38;;;;;;;;;;4929847;28;98594;-71
2023/01/24 07:13:25;;;;;;;31.95;19.10;;;;;;;;;;4925359;28;99261;-71
2023/01/24 07:15:51;;;;;;;33.67;20.42;;;;;;;;;;4919821;28;99974;-70
2023/01/24 07:18:18;;;;;;;32.58;19.63;;;;;;;;;;4930764;28;99764;-70
2023/01/24 07:20:45;;;;;;;34.42;20.80;;;;;;;;;;4932144;28;98873;-70
2023/01/24 07:23:25;;;;;;;31.30;19.52;;;;;;;;;;4929993;28;99278;-70
2023/01/24 07:25:51;;;;;;;32.25;19.83;;;;;;;;;;4930167;28;99515;-70
2023/01/24 07:28:18;;;;;;;30.85;20.23;;;;;;;;;;4932293;28;98504;-70
2023/01/24 07:30:45;;;;;;;34.13;20.73;;;;;;;;;;4929307;28;99282;-71
2023/01/24 07:33:13;;;;;;;33.92;21.10;;;;;;;;;;4928928;28;100353;-71
2023/01/24 07:35:40;;;;;;;32.10;20.67;;;;;;;;;;4941877;28;99821;-71
2023/01/24 07:38:06;;;;;;;32.25;20.98;;;;;;;;;;4949978;28;100347;-71
2023/01/24 07:40:33;;;;;;;35.33;20.60;;;;;;;;;;4931764;28;99323;-71
2023/01/24 07:43:00;;;;;;;36.67;20.80;;;;;;;;;;4945136;28;99327;-71
2023/01/24 07:45:27;;;;;;;34.17;20.73;;;;;;;;;;4932394;28;99523;-71
2023/01/24 07:47:57;;;;;;;36.60;20.92;;;;;;;;;;4931374;28;98951;-70
2023/01/24 07:50:24;;;;;;;40.05;21.40;;;;;;;;;;4934074;28;99312;-71
2023/01/24 07:52:54;;;;;;;32.88;19.98;;;;;;;;;;4911254;28;98676;-71
2023/01/24 07:55:20;;;;;;;36.38;21.17;;;;;;;;;;4931980;28;99709;-71
2023/01/24 07:57:47;;;;;;;30.88;19.60;;;;;;;;;;4930746;28;99459;-71
2023/01/24 08:00:14;;;;;;;32.38;19.48;;;;;;;;;;4931503;28;98520;-71
2023/01/24 08:02:44;;;;;;;31.70;19.10;;;;;;;;;;4930931;28;100184;-71
2023/01/24 08:05:10;;;;;;;34.25;20.77;;;;;;;;;;4930117;28;99644;-71
2023/01/24 08:07:37;;;;;;;33.38;20.20;;;;;;;;;;4930141;28;98699;-70
2023/01/24 08:10:04;;;;;;;29.75;19.08;;;;;;;;;;4930778;28;100601;-71
2023/01/24 08:12:30;;;;;;;30.98;19.15;;;;;;;;;;4936324;28;99502;-71
2023/01/24 08:14:56;;;;;;;27.23;17.15;;;;;;;;;;4930614;28;100665;-71
2023/01/24 08:17:22;;;;;;;33.20;19.75;;;;;;;;;;4923240;28;100833;-71
2023/01/24 08:19:49;;;;;;;28.83;18.10;;;;;;;;;;4917107;28;97886;-71
2023/01/24 08:22:22;;;;;;;30.15;18.15;;;;;;;;;;4948080;28;98498;-71
2023/01/24 08:24:48;;;;;;;29.25;18.20;;;;;;;;;;4934123;28;100515;-71
2023/01/24 08:27:15;;;;;;;33.75;18.40;;;;;;;;;;4929062;28;99393;-71
2023/01/24 08:29:41;;;;;;;28.25;18.20;;;;;;;;;;4929166;28;100161;-71
2023/01/24 08:32:07;;;;;;;30.95;17.50;;;;;;;;;;4936484;28;100779;-69
2023/01/24 08:34:34;;;;;;;31.33;19.15;;;;;;;;;;4932285;28;99264;-70
2023/01/24 08:37:00;;;;;;;30.50;18.35;;;;;;;;;;4930317;28;99536;-71
2023/01/24 08:39:26;;;;;;;27.20;18.02;;;;;;;;;;4930452;28;98614;-70
2023/01/24 08:41:54;;;;;;;36.88;18.75;;;;;;;;;;4938034;28;99605;-70
2023/01/24 08:44:20;;;;;;;29.52;17.58;;;;;;;;;;4938610;28;101281;-69
2023/01/24 08:46:47;;;;;;;28.60;17.70;;;;;;;;;;4934351;28;98627;-70
2023/01/24 08:49:13;;;;;;;36.88;18.77;;;;;;;;;;4930389;28;99674;-69
2023/01/24 08:51:39;;;;;;;29.85;18.75;;;;;;;;;;4928799;28;100525;-70
2023/01/24 08:54:06;;;;;;;27.67;16.52;;;;;;;;;;4930169;28;98821;-70
2023/01/24 08:56:33;;;;;;;29.33;17.83;;;;;;;;;;4933486;28;99261;-69
2023/01/24 08:58:59;;;;;;;31.42;17.65;;;;;;;;;;4930055;28;98964;-69
2023/01/24 09:01:26;;;;;;;30.25;18.10;;;;;;;;;;4935798;28;99502;-69
2023/01/24 09:03:54;;;;;;;30.90;17.73;;;;;;;;;;4949291;28;99442;-69
2023/01/24 09:06:21;;;;;;;27.45;17.05;;;;;;;;;;4952445;28;100310;-69
2023/01/24 09:08:47;;;;;;;29.40;17.30;;;;;;;;;;4952294;28;99481;-69
2023/01/24 09:11:13;;;;;;;30.27;17.92;;;;;;;;;;4949652;28;99533;-68
2023/01/24 09:13:39;;;;;;;26.95;17.10;;;;;;;;;;4933187;28;98646;-67
2023/01/24 09:16:06;;;;;;;29.08;16.75;;;;;;;;;;4932518;28;99892;-67
2023/01/24 09:18:32;;;;;;;28.55;16.52;;;;;;;;;;4923632;28;99618;-66
2023/01/24 09:21:02;;;;;;;30.90;18.33;;;;;;;;;;4932714;28;98464;-66
2023/01/24 09:23:29;;;;;;;34.23;18.70;;;;;;;;;;4930804;28;99275;-67
2023/01/24 09:25:55;;;;;;;33.33;18.23;;;;;;;;;;4917727;28;98580;-66
2023/01/24 09:28:21;;;;;;;29.63;17.98;;;;;;;;;;4913779;28;99555;-67
2023/01/24 09:30:48;;;;;;;36.38;18.85;;;;;;;;;;4937909;28;99505;-66
2023/01/24 09:33:15;;;;;;;34.40;17.92;;;;;;;;;;4947642;28;97816;-66
2023/01/24 09:35:41;;;;;;;29.13;17.80;;;;;;;;;;4951363;28;98750;-66
2023/01/24 09:38:08;;;;;;;31.08;18.20;;;;;;;;;;4945724;28;99734;-67
2023/01/24 09:40:45;;;;;;;30.23;17.17;;;;;;;;;;4935935;28;99693;-66
2023/01/24 09:43:21;;;;;;;30.52;18.73;;;;;;;;;;4932219;28;100371;-66
2023/01/24 09:46:12;;;;;;;31.98;17.50;;;;;;;;;;4938296;28;100182;-66
2023/01/24 09:48:39;;;;;;;33.58;18.92;;;;;;;;;;4933341;28;99259;-66
2023/01/24 09:51:11;;;;;;;31.70;17.85;;;;;;;;;;4932581;28;99487;-67
2023/01/24 09:53:40;;;;;;;29.67;18.25;;;;;;;;;;4932788;28;98953;-66
2023/01/24 09:56:11;;;;;;;32.58;18.83;;;;;;;;;;4948542;28;99677;-65
2023/01/24 09:58:43;;;;;;;33.20;17.83;;;;;;;;;;4935719;28;98835;-65
2023/01/24 10:01:14;;;;;;;28.73;17.27;;;;;;;;;;4937696;28;99659;-66
2023/01/24 10:03:41;;;;;;;30.73;18.00;;;;;;;;;;4929016;28;99810;-67
2023/01/24 10:06:13;;;;;;;32.65;19.08;;;;;;;;;;4943198;28;100101;-68
2023/01/24 10:08:49;;;;;;;34.97;19.40;;;;;;;;;;4913470;28;99994;-68
2023/01/24 10:11:25;;;;;;;31.23;18.58;;;;;;;;;;4917654;28;100378;-67
2023/01/24 10:13:57;;;;;;;30.30;17.45;;;;;;;;;;4932757;28;98987;-68
2023/01/24 10:16:35;;;;;;;29.95;18.05;;;;;;;;;;4940544;28;99979;-68
2023/01/24 10:19:04;;;;;;;31.80;17.60;;;;;;;;;;4951818;28;99554;-68
2023/01/24 10:21:53;;;;;;;30.73;18.05;;;;;;;;;;4950313;28;98505;-68
2023/01/24 10:24:22;;;;;;;28.23;16.67;;;;;;;;;;4955256;28;99629;-68
2023/01/24 10:26:50;;;;;;;32.80;17.38;;;;;;;;;;4941437;28;98769;-68
2023/01/24 10:29:23;;;;;;;33.63;17.67;;;;;;;;;;4931857;28;100434;-68
2023/01/24 10:31:53;;;;;;;30.10;16.45;;;;;;;;;;4931581;28;100739;-67
2023/01/24 10:34:28;;;;;;;28.50;17.95;;;;;;;;;;4931328;28;98612;-68
2023/01/24 10:37:00;;;;;;;28.38;16.90;;;;;;;;;;4938049;28;99382;-68
2023/01/24 10:39:27;;;;;;;26.75;16.25;;;;;;;;;;4951591;28;100559;-68
2023/01/24 10:41:54;;;;;;;29.45;17.15;;;;;;;;;;4937959;28;99655;-67
2023/01/24 10:44:20;;;;;;;31.00;17.45;;;;;;;;;;4934345;28;99199;-68
2023/01/24 10:46:46;;;;;;;28.52;16.75;;;;;;;;;;4948650;28;99809;-68
2023/01/24 10:49:29;;;;;;;27.88;17.02;;;;;;;;;;4947786;28;99630;-68
2023/01/24 10:52:09;;;;;;;27.35;16.80;;;;;;;;;;4943552;28;99759;-68
2023/01/24 10:54:47;;;;;;;27.83;17.38;;;;;;;;;;4938832;28;99035;-68
2023/01/24 10:57:26;;;;;;;27.90;17.27;;;;;;;;;;4934336;28;99336;-68
2023/01/24 10:59:52;;;;;;;29.92;17.48;;;;;;;;;;4946069;28;99505;-68
2023/01/24 11:02:23;;;;;;;27.00;16.38;;;;;;;;;;4936372;28;98514;-68
2023/01/24 11:05:12;;;;;;;26.80;16.63;;;;;;;;;;4938037;28;98487;-68
2023/01/24 11:07:43;;;;;;;30.38;17.55;;;;;;;;;;4935111;28;99875;-68
2023/01/24 11:10:14;;;;;;;27.55;16.27;;;;;;;;;;4948724;28;98597;-68
2023/01/24 11:12:46;;;;;;;29.17;16.40;;;;;;;;;;4932248;28;99534;-68
2023/01/24 11:15:19;;;;;;;24.42;15.57;;;;;;;;;;4932218;28;99649;-68
2023/01/24 11:17:45;;;;;;;24.80;15.02;;;;;;;;;;4935228;28;100053;-67
2023/01/24 11:20:25;;;;;;;24.15;14.95;;;;;;;;;;4942386;28;99517;-67
2023/01/24 11:23:00;;;;;;;26.70;15.67;;;;;;;;;;4930487;28;99957;-68
2023/01/24 11:25:26;;;;;;;25.48;15.50;;;;;;;;;;4933239;28;100293;-68
2023/01/24 11:27:53;;;;;;;26.42;15.63;;;;;;;;;;4931221;28;99483;-67
2023/01/24 11:30:20;;;;;;;25.23;15.38;;;;;;;;;;4947903;28;98799;-68
2023/01/24 11:32:52;;;;;;;42.60;23.25;;;;;;;;;;4954555;28;99463;-68
2023/01/24 11:35:24;;;;;;;36.55;20.92;;;;;;;;;;4952855;28;98716;-67
2023/01/24 11:38:09;;;;;;;26.30;15.77;;;;;;;;;;4941156;28;99590;-68
2023/01/24 11:40:36;;;;;;;26.02;15.73;;;;;;;;;;4952769;28;99042;-67
2023/01/24 11:43:12;;;;;;;31.80;17.27;;;;;;;;;;4953132;28;99641;-67
2023/01/24 11:45:45;;;;;;;27.02;16.65;;;;;;;;;;4945089;28;99269;-67
2023/01/24 11:48:19;;;;;;;28.00;17.50;;;;;;;;;;4930318;28;100448;-68
2023/01/24 11:50:52;;;;;;;25.98;15.88;;;;;;;;;;4932887;28;98587;-68
2023/01/24 11:53:38;;;;;;;27.27;17.10;;;;;;;;;;4934756;28;100116;-68
2023/01/24 11:56:11;;;;;;;26.10;16.27;;;;;;;;;;4948448;28;98606;-70
2023/01/24 11:58:47;;;;;;;25.10;15.82;;;;;;;;;;4951856;28;98859;-67
2023/01/24 12:01:17;;;;;;;26.02;15.98;;;;;;;;;;4951449;28;99480;-68
2023/01/24 12:03:43;;;;;;;26.85;17.27;;;;;;;;;;4943896;28;98516;-67
2023/01/24 12:06:18;;;;;;;24.85;15.75;;;;;;;;;;4928626;28;99773;-68
2023/01/24 12:08:59;;;;;;;25.13;16.67;;;;;;;;;;4931531;28;99698;-67
2023/01/24 12:11:39;;;;;;;26.48;16.60;;;;;;;;;;4930524;28;98596;-68
2023/01/24 12:14:08;;;;;;;28.80;16.38;;;;;;;;;;4931454;28;100312;-68
2023/01/24 12:16:42;;;;;;;25.75;16.05;;;;;;;;;;4939790;28;99688;-68
2023/01/24 12:19:19;;;;;;;25.92;16.90;;;;;;;;;;4931409;28;102171;-68
2023/01/24 12:21:46;;;;;;;24.60;15.38;;;;;;;;;;4930382;28;99573;-67
2023/01/24 12:24:19;;;;;;;40.50;16.17;;;;;;;;;;4927000;28;99610;-70
2023/01/24 12:26:50;;;;;;;26.27;15.02;;;;;;;;;;4933987;28;99271;-68
2023/01/24 12:29:22;;;;;;;25.48;16.58;;;;;;;;;;4949907;28;100038;-68
2023/01/24 12:31:55;;;;;;;23.38;15.98;;;;;;;;;;4950876;28;98053;-67
2023/01/24 12:34:30;;;;;;;25.38;15.88;;;;;;;;;;4939114;28;98952;-68
2023/01/24 12:37:04;;;;;;;27.77;15.85;;;;;;;;;;4930133;28;99465;-67
2023/01/24 12:39:35;;;;;;;26.30;17.10;;;;;;;;;;4950870;28;99283;-67
2023/01/24 12:42:01;;;;;;;;;;;;;;;;;;4910346;28;99625;-67
2023/01/24 12:44:27;;;;;;;28.65;18.27;;;;;;;;;;4935103;28;119333;-67
2023/01/24 12:46:53;;;;;;;22.77;15.15;;;;;;;;;;4929070;28;99101;-67
2023/01/24 12:49:20;;;;;;;22.70;14.90;;;;;;;;;;4930499;28;100520;-67
2023/01/24 12:51:55;;;;;;;26.02;16.15;;;;;;;;;;4930717;28;99592;-67
2023/01/24 12:54:25;;;;;;;25.23;16.58;;;;;;;;;;4931702;28;99220;-67
2023/01/24 12:57:01;;;;;;;25.25;17.08;;;;;;;;;;4930324;28;98880;-67
2023/01/24 12:59:28;;;;;;;24.50;16.77;;;;;;;;;;4929147;28;98641;-67
2023/01/24 13:02:12;;;;;;;25.05;16.70;;;;;;;;;;4933171;28;99252;-67
2023/01/24 13:04:50;;;;;;;25.95;16.58;;;;;;;;;;4928490;28;100172;-68
2023/01/24 13:07:29;;;;;;;26.48;17.25;;;;;;;;;;4930172;28;103204;-67
2023/01/24 13:09:59;;;;;;;27.80;16.75;;;;;;;;;;4928448;28;99523;-68
2023/01/24 13:12:26;;;;;;;30.75;18.73;;;;;;;;;;4929252;28;98573;-67
2023/01/24 13:15:16;;;;;;;29.05;17.85;;;;;;;;;;4929438;28;100103;-68
2023/01/24 13:17:45;;;;;;;25.60;16.95;;;;;;;;;;4917672;28;102444;-67
2023/01/24 13:20:11;;;;;;;24.50;16.50;;;;;;;;;;4915686;28;98553;-67
2023/01/24 13:22:38;;;;;;;26.58;16.67;;;;;;;;;;4927635;28;99568;-67
2023/01/24 13:25:16;;;;;;;25.17;16.88;;;;;;;;;;4932665;28;100613;-68
2023/01/24 13:27:59;;;;;;;26.77;16.60;;;;;;;;;;4929898;28;98591;-67
2023/01/24 13:30:43;;;;;;;25.17;16.70;;;;;;;;;;4929440;28;100276;-67
2023/01/24 13:33:13;;;;;;;22.33;15.30;;;;;;;;;;4933119;28;98683;-68
2023/01/24 13:35:46;;;;;;;23.50;15.60;;;;;;;;;;4910586;28;99642;-67
2023/01/24 13:38:23;;;;;;;25.73;14.95;;;;;;;;;;4925530;28;99850;-67
2023/01/24 13:40:57;;;;;;;25.27;16.50;;;;;;;;;;4929561;28;98656;-68
2023/01/24 13:43:36;;;;;;;26.20;16.70;;;;;;;;;;4944781;28;100360;-67
2023/01/24 13:46:02;;;;;;;24.75;15.45;;;;;;;;;;4945711;28;99782;-68
2023/01/24 13:48:41;;;;;;;24.77;16.40;;;;;;;;;;4951670;28;97929;-67
2023/01/24 13:51:16;;;;;;;26.98;17.45;;;;;;;;;;4936922;28;100517;-67
2023/01/24 13:54:01;;;;;;;24.95;16.55;;;;;;;;;;4938696;28;99064;-66
2023/01/24 13:56:28;;;;;;;25.52;17.02;;;;;;;;;;4912938;28;99217;-67
2023/01/24 13:58:56;;;;;;;25.98;17.00;;;;;;;;;;4922826;28;99895;-67
2023/01/24 14:01:23;;;;;;;25.27;16.90;;;;;;;;;;4930719;28;98845;-67
2023/01/24 14:03:52;;;;;;;24.75;16.65;;;;;;;;;;4945156;28;99322;-67
2023/01/24 14:06:19;;;;;;;37.13;17.48;;;;;;;;;;4933838;28;102592;-68
2023/01/24 14:08:48;;;;;;;23.48;16.15;;;;;;;;;;4935348;28;98682;-67
2023/01/24 14:11:16;;;;;;;23.88;17.10;;;;;;;;;;4943526;28;100119;-68
2023/01/24 14:13:55;;;;;;;25.63;16.13;;;;;;;;;;4938096;28;98242;-67
2023/01/24 14:16:27;;;;;;;24.20;16.75;;;;;;;;;;4932364;28;98608;-67
2023/01/24 14:18:58;;;;;;;23.92;16.67;;;;;;;;;;4932345;28;99499;-67
2023/01/24 14:21:29;;;;;;;24.63;17.33;;;;;;;;;;4932266;28;99474;-67
2023/01/24 14:23:58;;;;;;;25.83;16.50;;;;;;;;;;4932391;28;99992;-67
2023/01/24 14:26:33;;;;;;;24.70;16.90;;;;;;;;;;4942606;28;99680;-67
2023/01/24 14:29:01;;;;;;;22.30;16.23;;;;;;;;;;4946911;28;98706;-67
2023/01/24 14:31:49;;;;;;;22.02;16.25;;;;;;;;;;4954695;28;99635;-69
2023/01/24 14:34:15;;;;;;;28.60;17.73;;;;;;;;;;4949497;28;98755;-68
2023/01/24 14:36:42;;;;;;;22.58;16.42;;;;;;;;;;4934945;28;99296;-68
2023/01/24 14:39:13;;;;;;;25.17;16.45;;;;;;;;;;4947376;28;98858;-68
2023/01/24 14:41:39;;;;;;;23.52;16.30;;;;;;;;;;4951955;28;98925;-68
2023/01/24 14:44:19;;;;;;;28.92;17.58;;;;;;;;;;4935017;28;99493;-68
2023/01/24 14:46:53;;;;;;;23.87;16.23;;;;;;;;;;4932717;28;100555;-68
2023/01/24 14:49:30;;;;;;;25.67;16.35;;;;;;;;;;4951549;28;98559;-68
2023/01/24 14:51:56;;;;;;;24.05;16.75;;;;;;;;;;4938094;28;99390;-68
2023/01/24 14:54:37;;;;;;;26.65;17.05;;;;;;;;;;4936693;28;99564;-68
2023/01/24 14:57:18;;;;;;;22.83;16.35;;;;;;;;;;4932935;28;99421;-68
2023/01/24 14:59:49;;;;;;;;;;;;;;;;;;4930930;28;99544;-67
2023/01/24 15:02:16;;;;;;;23.80;16.38;;;;;;;;;;4932984;28;120673;-68
2023/01/24 15:04:47;;;;;;;24.48;16.13;;;;;;;;;;4931929;28;99557;-67
2023/01/24 15:07:13;;;;;;;;;;;;;;;;;;4936830;28;100036;-67